sensor_id;sensor_type;location;lat;lon;timestamp;pressure;altitude;pressure_sealevel;temperature;humidity
24962;BME280;12992;50.884;13.668;2023-02-18T00:00:17;97522.03;;;8.53;100.00
24962;BME280;12992;50.884;13.668;2023-02-18T00:02:44;97521.44;;;8.51;100.00
24962;BME280;12992;50.884;13.668;2023-02-18T00:05:09;97526.75;;;8.58;100.00
24962;BME280;12992;50.884;13.668;2023-02-18T00:07:36;97533.81;;;8.59;100.00
24962;BME280;12992;50.884;13.668;2023-02-18T00:10:03;97531.94;;;8.59;100.00
24962;BME280;12992;50.884;13.668;2023-02-18T00:12:29;97521.66;;;8.61;100.00
24962;BME280;12992;50.884;13.668;2023-02-18T00:14:55;97531.44;;;8.62;100.00
24962;BME280;12992;50.884;13.668;2023-02-18T00:17:21;97529.31;;;8.64;100.00
24962;BME280;12992;50.884;13.668;2023-02-18T00:19:46;97549.16;;;8.65;100.00
24962;BME280;12992;50.884;13.668;2023-02-18T00:22:11;97537.47;;;8.64;100.00
24962;BME280;12992;50.884;13.668;2023-02-18T00:24:37;97530.88;;;8.60;100.00
24962;BME280;12992;50.884;13.668;2023-02-18T00:27:03;97534.41;;;8.61;100.00
24962;BME280;12992;50.884;13.668;2023-02-18T00:29:28;97533.81;;;8.59;100.00
24962;BME280;12992;50.884;13.668;2023-02-18T00:31:53;97537.59;;;8.58;100.00
24962;BME280;12992;50.884;13.668;2023-02-18T00:34:20;97536.78;;;8.57;100.00
24962;BME280;12992;50.884;13.668;2023-02-18T00:36:46;97525.81;;;8.52;100.00
24962;BME280;12992;50.884;13.668;2023-02-18T00:39:11;97535.34;;;8.55;100.00
24962;BME280;12992;50.884;13.668;2023-02-18T00:41:38;97523.56;;;8.49;100.00
24962;BME280;12992;50.884;13.668;2023-02-18T00:44:04;97525.66;;;8.47;100.00
24962;BME280;12992;50.884;13.668;2023-02-18T00:46:30;97514.47;;;8.43;100.00
24962;BME280;12992;50.884;13.668;2023-02-18T00:48:56;97518.50;;;8.41;100.00
24962;BME280;12992;50.884;13.668;2023-02-18T00:51:22;97523.69;;;8.42;100.00
24962;BME280;12992;50.884;13.668;2023-02-18T00:53:49;97526.66;;;8.41;100.00
24962;BME280;12992;50.884;13.668;2023-02-18T00:56:14;97520.16;;;8.42;100.00
24962;BME280;12992;50.884;13.668;2023-02-18T00:58:40;97516.63;;;8.41;100.00
24962;BME280;12992;50.884;13.668;2023-02-18T01:01:07;97526.97;;;8.44;100.00
24962;BME280;12992;50.884;13.668;2023-02-18T01:03:33;97516.38;;;8.43;100.00
24962;BME280;12992;50.884;13.668;2023-02-18T01:05:58;97516.03;;;8.39;100.00
24962;BME280;12992;50.884;13.668;2023-02-18T01:08:24;97519.56;;;8.40;100.00
24962;BME280;12992;50.884;13.668;2023-02-18T01:10:52;97525.56;;;8.42;100.00
24962;BME280;12992;50.884;13.668;2023-02-18T01:13:18;97516.25;;;8.38;100.00
24962;BME280;12992;50.884;13.668;2023-02-18T01:15:43;97500.44;;;8.35;100.00
24962;BME280;12992;50.884;13.668;2023-02-18T01:18:10;97504.88;;;8.29;100.00
24962;BME280;12992;50.884;13.668;2023-02-18T01:20:39;97505.25;;;8.33;100.00
24962;BME280;12992;50.884;13.668;2023-02-18T01:23:06;97497.00;;;8.28;100.00
24962;BME280;12992;50.884;13.668;2023-02-18T01:25:32;97489.56;;;8.23;100.00
24962;BME280;12992;50.884;13.668;2023-02-18T01:27:59;97493.34;;;8.22;100.00
24962;BME280;12992;50.884;13.668;2023-02-18T01:30:25;97484.03;;;8.18;100.00
24962;BME280;12992;50.884;13.668;2023-02-18T01:32:50;97492.88;;;8.13;100.00
24962;BME280;12992;50.884;13.668;2023-02-18T01:35:18;97485.78;;;8.12;100.00
24962;BME280;12992;50.884;13.668;2023-02-18T01:37:44;97486.25;;;8.09;100.00
24962;BME280;12992;50.884;13.668;2023-02-18T01:40:11;97481.31;;;8.06;100.00
24962;BME280;12992;50.884;13.668;2023-02-18T01:42:37;97474.69;;;8.02;100.00
24962;BME280;12992;50.884;13.668;2023-02-18T01:48:12;97481.66;;;7.98;100.00
24962;BME280;12992;50.884;13.668;2023-02-18T01:50:43;97477.31;;;7.97;100.00
24962;BME280;12992;50.884;13.668;2023-02-18T01:53:11;97482.25;;;8.00;100.00
24962;BME280;12992;50.884;13.668;2023-02-18T01:55:39;97480.59;;;7.99;100.00
24962;BME280;12992;50.884;13.668;2023-02-18T01:58:05;97470.81;;;7.98;100.00
24962;BME280;12992;50.884;13.668;2023-02-18T02:00:30;97484.13;;;8.00;100.00
24962;BME280;12992;50.884;13.668;2023-02-18T02:02:57;97482.00;;;8.02;100.00
24962;BME280;12992;50.884;13.668;2023-02-18T02:05:22;97485.53;;;8.02;100.00
24962;BME280;12992;50.884;13.668;2023-02-18T02:07:50;97490.38;;;8.00;100.00
24962;BME280;12992;50.884;13.668;2023-02-18T02:10:18;97486.38;;;8.03;100.00
24962;BME280;12992;50.884;13.668;2023-02-18T02:15:44;97497.59;;;8.06;100.00
24962;BME280;12992;50.884;13.668;2023-02-18T02:18:19;97488.63;;;8.06;100.00
24962;BME280;12992;50.884;13.668;2023-02-18T02:24:24;97516.00;;;8.04;100.00
24962;BME280;12992;50.884;13.668;2023-02-18T02:27:08;97512.56;;;8.09;100.00
24962;BME280;12992;50.884;13.668;2023-02-18T02:35:07;97511.75;;;8.08;100.00
24962;BME280;12992;50.884;13.668;2023-02-18T02:40:45;97506.56;;;8.07;100.00
24962;BME280;12992;50.884;13.668;2023-02-18T02:46:11;97509.13;;;8.02;100.00
24962;BME280;12992;50.884;13.668;2023-02-18T02:48:53;97515.84;;;7.99;100.00
24962;BME280;12992;50.884;13.668;2023-02-18T02:54:28;97514.78;;;8.00;100.00
24962;BME280;12992;50.884;13.668;2023-02-18T02:59:35;97508.69;;;8.05;100.00
24962;BME280;12992;50.884;13.668;2023-02-18T03:07:54;97502.28;;;7.99;100.00
24962;BME280;12992;50.884;13.668;2023-02-18T03:15:37;97494.50;;;7.91;100.00
24962;BME280;12992;50.884;13.668;2023-02-18T03:18:20;97494.50;;;7.91;100.00
24962;BME280;12992;50.884;13.668;2023-02-18T03:21:00;97506.19;;;7.91;100.00
24962;BME280;12992;50.884;13.668;2023-02-18T03:23:32;97506.19;;;7.91;100.00
24962;BME280;12992;50.884;13.668;2023-02-18T03:26:00;97510.78;;;7.91;100.00
24962;BME280;12992;50.884;13.668;2023-02-18T03:28:29;97502.50;;;7.86;100.00
24962;BME280;12992;50.884;13.668;2023-02-18T03:31:04;97508.53;;;7.88;100.00
24962;BME280;12992;50.884;13.668;2023-02-18T03:33:36;97502.50;;;7.86;100.00
24962;BME280;12992;50.884;13.668;2023-02-18T03:36:03;97498.88;;;7.80;100.00
24962;BME280;12992;50.884;13.668;2023-02-18T03:38:37;97501.81;;;7.79;100.00
24962;BME280;12992;50.884;13.668;2023-02-18T03:41:04;97495.56;;;7.78;100.00
24962;BME280;12992;50.884;13.668;2023-02-18T03:43:30;97494.13;;;7.76;100.00
24962;BME280;12992;50.884;13.668;2023-02-18T03:45:56;97503.47;;;7.80;100.00
24962;BME280;12992;50.884;13.668;2023-02-18T03:48:23;97509.47;;;7.82;100.00
24962;BME280;12992;50.884;13.668;2023-02-18T03:50:50;97511.84;;;7.78;100.00
24962;BME280;12992;50.884;13.668;2023-02-18T03:53:16;97504.72;;;7.77;100.00
24962;BME280;12992;50.884;13.668;2023-02-18T03:55:42;97496.84;;;7.76;100.00
24962;BME280;12992;50.884;13.668;2023-02-18T03:58:07;97503.31;;;7.75;100.00
24962;BME280;12992;50.884;13.668;2023-02-18T04:00:32;97501.69;;;7.74;100.00
24962;BME280;12992;50.884;13.668;2023-02-18T04:02:58;97509.56;;;7.75;100.00
24962;BME280;12992;50.884;13.668;2023-02-18T04:05:23;97500.63;;;7.75;100.00
24962;BME280;12992;50.884;13.668;2023-02-18T04:07:48;97490.25;;;7.72;100.00
24962;BME280;12992;50.884;13.668;2023-02-18T04:10:14;97491.06;;;7.72;100.00
24962;BME280;12992;50.884;13.668;2023-02-18T04:12:39;97492.72;;;7.73;100.00
24962;BME280;12992;50.884;13.668;2023-02-18T04:15:04;97507.69;;;7.76;100.00
24962;BME280;12992;50.884;13.668;2023-02-18T04:17:31;97507.69;;;7.76;100.00
24962;BME280;12992;50.884;13.668;2023-02-18T04:19:57;97500.84;;;7.73;100.00
24962;BME280;12992;50.884;13.668;2023-02-18T04:22:22;97494.84;;;7.71;100.00
24962;BME280;12992;50.884;13.668;2023-02-18T04:24:47;97499.88;;;7.67;100.00
24962;BME280;12992;50.884;13.668;2023-02-18T04:27:13;97491.75;;;7.67;100.00
24962;BME280;12992;50.884;13.668;2023-02-18T04:29:38;97500.94;;;7.66;100.00
24962;BME280;12992;50.884;13.668;2023-02-18T04:32:03;97507.44;;;7.65;100.00
24962;BME280;12992;50.884;13.668;2023-02-18T04:34:29;97511.34;;;7.70;100.00
24962;BME280;12992;50.884;13.668;2023-02-18T04:36:54;97509.69;;;7.69;100.00
24962;BME280;12992;50.884;13.668;2023-02-18T04:39:20;97496.81;;;7.64;100.00
24962;BME280;12992;50.884;13.668;2023-02-18T04:41:45;97493.06;;;7.65;100.00
24962;BME280;12992;50.884;13.668;2023-02-18T04:44:11;97493.28;;;7.63;100.00
24962;BME280;12992;50.884;13.668;2023-02-18T04:46:36;97490.72;;;7.69;100.00
24962;BME280;12992;50.884;13.668;2023-02-18T04:49:01;97481.97;;;7.66;100.00
24962;BME280;12992;50.884;13.668;2023-02-18T04:51:27;97487.88;;;7.63;100.00
24962;BME280;12992;50.884;13.668;2023-02-18T04:53:53;97483.03;;;7.65;100.00
24962;BME280;12992;50.884;13.668;2023-02-18T04:56:18;97484.34;;;7.63;100.00
24962;BME280;12992;50.884;13.668;2023-02-18T04:58:44;97488.34;;;7.60;100.00
24962;BME280;12992;50.884;13.668;2023-02-18T05:01:09;97495.41;;;7.61;100.00
24962;BME280;12992;50.884;13.668;2023-02-18T05:03:35;97482.44;;;7.63;100.00
24962;BME280;12992;50.884;13.668;2023-02-18T05:06:00;97490.00;;;7.61;100.00
24962;BME280;12992;50.884;13.668;2023-02-18T05:08:26;97501.78;;;7.67;100.00
24962;BME280;12992;50.884;13.668;2023-02-18T05:10:51;97494.94;;;7.64;100.00
24962;BME280;12992;50.884;13.668;2023-02-18T05:13:16;97519.94;;;7.66;100.00
24962;BME280;12992;50.884;13.668;2023-02-18T05:15:42;97519.94;;;7.66;100.00
24962;BME280;12992;50.884;13.668;2023-02-18T05:18:07;97523.09;;;7.63;100.00
24962;BME280;12992;50.884;13.668;2023-02-18T05:20:33;97510.03;;;7.60;100.00
24962;BME280;12992;50.884;13.668;2023-02-18T05:22:59;97510.94;;;7.54;100.00
24962;BME280;12992;50.884;13.668;2023-02-18T05:25:24;97508.47;;;7.53;100.00
24962;BME280;12992;50.884;13.668;2023-02-18T05:27:49;97512.44;;;7.50;100.00
24962;BME280;12992;50.884;13.668;2023-02-18T05:30:15;97507.03;;;7.50;100.00
24962;BME280;12992;50.884;13.668;2023-02-18T05:32:40;97507.66;;;7.52;100.00
24962;BME280;12992;50.884;13.668;2023-02-18T05:35:06;97509.53;;;7.52;100.00
24962;BME280;12992;50.884;13.668;2023-02-18T05:37:31;97513.28;;;7.51;100.00
24962;BME280;12992;50.884;13.668;2023-02-18T05:39:56;97508.72;;;7.51;100.00
24962;BME280;12992;50.884;13.668;2023-02-18T05:42:22;97508.25;;;7.54;100.00
24962;BME280;12992;50.884;13.668;2023-02-18T05:44:47;97500.09;;;7.54;100.00
24962;BME280;12992;50.884;13.668;2023-02-18T05:47:13;97506.34;;;7.55;100.00
24962;BME280;12992;50.884;13.668;2023-02-18T05:49:40;97501.75;;;7.55;100.00
24962;BME280;12992;50.884;13.668;2023-02-18T05:52:06;97508.25;;;7.54;100.00
24962;BME280;12992;50.884;13.668;2023-02-18T05:54:32;97508.34;;;7.59;100.00
24962;BME280;12992;50.884;13.668;2023-02-18T05:56:57;97496.69;;;7.59;100.00
24962;BME280;12992;50.884;13.668;2023-02-18T05:59:23;97497.06;;;7.62;100.00
24962;BME280;12992;50.884;13.668;2023-02-18T06:01:49;97498.25;;;7.66;100.00
24962;BME280;12992;50.884;13.668;2023-02-18T06:04:15;97482.59;;;7.69;100.00
24962;BME280;12992;50.884;13.668;2023-02-18T06:06:40;97490.72;;;7.69;100.00
24962;BME280;12992;50.884;13.668;2023-02-18T06:09:06;97488.00;;;7.69;100.00
24962;BME280;12992;50.884;13.668;2023-02-18T06:11:32;97491.16;;;7.65;100.00
24962;BME280;12992;50.884;13.668;2023-02-18T06:13:58;97497.66;;;7.64;100.00
24962;BME280;12992;50.884;13.668;2023-02-18T06:16:23;97492.72;;;7.61;100.00
24962;BME280;12992;50.884;13.668;2023-02-18T06:18:48;97498.72;;;7.63;100.00
24962;BME280;12992;50.884;13.668;2023-02-18T06:21:14;97498.72;;;7.63;100.00
24962;BME280;12992;50.884;13.668;2023-02-18T06:23:40;97502.50;;;7.62;100.00
24962;BME280;12992;50.884;13.668;2023-02-18T06:26:05;97506.03;;;7.63;100.00
24962;BME280;12992;50.884;13.668;2023-02-18T06:28:30;97503.31;;;7.63;100.00
24962;BME280;12992;50.884;13.668;2023-02-18T06:30:56;97493.28;;;7.63;100.00
24962;BME280;12992;50.884;13.668;2023-02-18T06:33:21;97495.78;;;7.65;100.00
24962;BME280;12992;50.884;13.668;2023-02-18T06:35:58;97496.16;;;7.69;100.00
24962;BME280;12992;50.884;13.668;2023-02-18T06:38:24;97496.97;;;7.69;100.00
24962;BME280;12992;50.884;13.668;2023-02-18T06:40:50;97494.25;;;7.69;100.00
24962;BME280;12992;50.884;13.668;2023-02-18T06:43:15;97486.56;;;7.66;100.00
24962;BME280;12992;50.884;13.668;2023-02-18T06:45:41;97497.41;;;7.66;100.00
24962;BME280;12992;50.884;13.668;2023-02-18T06:48:06;97491.16;;;7.65;100.00
24962;BME280;12992;50.884;13.668;2023-02-18T06:50:31;97495.91;;;7.70;100.00
24962;BME280;12992;50.884;13.668;2023-02-18T06:52:57;97495.66;;;7.72;100.00
24962;BME280;12992;50.884;13.668;2023-02-18T06:55:24;97480.00;;;7.74;100.00
24962;BME280;12992;50.884;13.668;2023-02-18T06:57:49;97484.94;;;7.77;100.00
24962;BME280;12992;50.884;13.668;2023-02-18T07:00:15;97487.19;;;7.80;100.00
24962;BME280;12992;50.884;13.668;2023-02-18T07:02:40;97490.25;;;7.83;100.00
24962;BME280;12992;50.884;13.668;2023-02-18T07:05:06;97481.78;;;7.91;100.00
24962;BME280;12992;50.884;13.668;2023-02-18T07:07:31;97475.75;;;7.89;100.00
24962;BME280;12992;50.884;13.668;2023-02-18T07:09:56;97472.81;;;7.91;100.00
24962;BME280;12992;50.884;13.668;2023-02-18T07:12:22;97475.53;;;7.91;100.00
24962;BME280;12992;50.884;13.668;2023-02-18T07:14:47;97471.88;;;7.97;100.00
24962;BME280;12992;50.884;13.668;2023-02-18T07:17:12;97467.97;;;7.93;100.00
24962;BME280;12992;50.884;13.668;2023-02-18T07:19:38;97477.16;;;8.04;100.00
24962;BME280;12992;50.884;13.668;2023-02-18T07:22:04;97471.19;;;8.13;100.00
24962;BME280;12992;50.884;13.668;2023-02-18T07:24:29;97465.63;;;8.08;100.00
24962;BME280;12992;50.884;13.668;2023-02-18T07:26:54;97465.38;;;8.10;100.00
24962;BME280;12992;50.884;13.668;2023-02-18T07:29:20;97465.28;;;8.16;100.00
24962;BME280;12992;50.884;13.668;2023-02-18T07:31:45;97464.22;;;8.17;100.00
24962;BME280;12992;50.884;13.668;2023-02-18T07:34:10;97455.13;;;8.23;100.00
24962;BME280;12992;50.884;13.668;2023-02-18T07:36:36;97448.06;;;8.22;100.00
24962;BME280;12992;50.884;13.668;2023-02-18T07:39:01;97448.06;;;8.22;100.00
24962;BME280;12992;50.884;13.668;2023-02-18T07:41:27;97438.38;;;8.27;100.00
24962;BME280;12992;50.884;13.668;2023-02-18T07:43:52;97435.31;;;8.35;100.00
24962;BME280;12992;50.884;13.668;2023-02-18T07:46:18;97432.72;;;8.40;100.00
24962;BME280;12992;50.884;13.668;2023-02-18T07:48:43;97425.50;;;8.45;100.00
24962;BME280;12992;50.884;13.668;2023-02-18T07:51:10;97429.28;;;8.44;100.00
24962;BME280;12992;50.884;13.668;2023-02-18T07:53:36;97412.88;;;8.51;100.00
24962;BME280;12992;50.884;13.668;2023-02-18T07:56:02;97407.31;;;8.58;100.00
24962;BME280;12992;50.884;13.668;2023-02-18T07:58:30;97410.47;;;8.66;100.00
24962;BME280;12992;50.884;13.668;2023-02-18T08:00:56;97417.16;;;8.75;100.00
24962;BME280;12992;50.884;13.668;2023-02-18T08:03:28;97418.91;;;8.82;100.00
24962;BME280;12992;50.884;13.668;2023-02-18T08:05:54;97419.94;;;8.92;100.00
24962;BME280;12992;50.884;13.668;2023-02-18T08:08:23;97412.19;;;9.01;100.00
24962;BME280;12992;50.884;13.668;2023-02-18T08:10:49;97404.66;;;9.03;100.00
24962;BME280;12992;50.884;13.668;2023-02-18T08:13:15;97411.22;;;9.07;100.00
24962;BME280;12992;50.884;13.668;2023-02-18T08:15:41;97400.94;;;9.09;100.00
24962;BME280;12992;50.884;13.668;2023-02-18T08:18:09;97398.06;;;9.16;100.00
24962;BME280;12992;50.884;13.668;2023-02-18T08:20:38;97392.00;;;9.25;100.00
24962;BME280;12992;50.884;13.668;2023-02-18T08:23:04;97398.19;;;9.38;100.00
24962;BME280;12992;50.884;13.668;2023-02-18T08:25:30;97385.09;;;9.51;100.00
24962;BME280;12992;50.884;13.668;2023-02-18T08:27:56;97378.41;;;9.59;100.00
24962;BME280;12992;50.884;13.668;2023-02-18T08:30:21;97365.38;;;9.61;100.00
24962;BME280;12992;50.884;13.668;2023-02-18T08:32:47;97367.63;;;9.64;100.00
24962;BME280;12992;50.884;13.668;2023-02-18T08:35:12;97380.81;;;9.72;100.00
24962;BME280;12992;50.884;13.668;2023-02-18T08:37:37;97366.72;;;9.75;100.00
24962;BME280;12992;50.884;13.668;2023-02-18T08:40:04;97361.25;;;9.75;100.00
24962;BME280;12992;50.884;13.668;2023-02-18T08:42:29;97338.44;;;9.76;100.00
24962;BME280;12992;50.884;13.668;2023-02-18T08:44:55;97347.41;;;9.77;100.00
24962;BME280;12992;50.884;13.668;2023-02-18T08:47:20;97334.59;;;9.72;100.00
24962;BME280;12992;50.884;13.668;2023-02-18T08:49:45;97337.09;;;9.79;100.00
24962;BME280;12992;50.884;13.668;2023-02-18T08:52:11;97325.75;;;9.82;100.00
24962;BME280;12992;50.884;13.668;2023-02-18T08:54:36;97330.75;;;9.90;100.00
24962;BME280;12992;50.884;13.668;2023-02-18T08:57:01;97346.44;;;10.05;100.00
24962;BME280;12992;50.884;13.668;2023-02-18T08:59:27;97327.13;;;10.06;100.00
24962;BME280;12992;50.884;13.668;2023-02-18T09:01:52;97334.13;;;10.19;100.00
24962;BME280;12992;50.884;13.668;2023-02-18T09:04:17;97350.47;;;10.41;100.00
24962;BME280;12992;50.884;13.668;2023-02-18T09:06:45;97341.09;;;10.54;100.00
24962;BME280;12992;50.884;13.668;2023-02-18T09:09:11;97330.47;;;10.52;100.00
24962;BME280;12992;50.884;13.668;2023-02-18T09:11:36;97322.53;;;10.50;100.00
24962;BME280;12992;50.884;13.668;2023-02-18T09:14:01;97315.78;;;10.53;100.00
24962;BME280;12992;50.884;13.668;2023-02-18T09:16:27;97310.63;;;10.57;100.00
24962;BME280;12992;50.884;13.668;2023-02-18T09:18:54;97313.41;;;10.62;100.00
24962;BME280;12992;50.884;13.668;2023-02-18T09:21:20;97302.56;;;10.67;100.00
24962;BME280;12992;50.884;13.668;2023-02-18T09:23:46;97294.09;;;10.63;100.00
24962;BME280;12992;50.884;13.668;2023-02-18T09:26:14;97291.09;;;10.65;100.00
24962;BME280;12992;50.884;13.668;2023-02-18T09:28:40;97289.22;;;10.65;100.00
24962;BME280;12992;50.884;13.668;2023-02-18T09:31:14;97285.22;;;10.51;100.00
24962;BME280;12992;50.884;13.668;2023-02-18T09:33:43;97269.31;;;10.38;100.00
24962;BME280;12992;50.884;13.668;2023-02-18T09:36:09;97266.28;;;10.34;100.00
24962;BME280;12992;50.884;13.668;2023-02-18T09:38:34;97263.56;;;10.34;100.00
24962;BME280;12992;50.884;13.668;2023-02-18T09:41:02;97258.94;;;10.35;100.00
24962;BME280;12992;50.884;13.668;2023-02-18T09:43:39;97277.56;;;10.43;100.00
24962;BME280;12992;50.884;13.668;2023-02-18T09:46:17;97260.59;;;10.36;100.00
24962;BME280;12992;50.884;13.668;2023-02-18T09:48:43;97255.59;;;10.28;100.00
24962;BME280;12992;50.884;13.668;2023-02-18T09:51:12;97251.91;;;10.17;100.00
24962;BME280;12992;50.884;13.668;2023-02-18T09:53:41;97253.28;;;9.98;100.00
24962;BME280;12992;50.884;13.668;2023-02-18T09:56:11;97257.72;;;10.04;100.00
24962;BME280;12992;50.884;13.668;2023-02-18T09:58:37;97266.47;;;10.06;100.00
24962;BME280;12992;50.884;13.668;2023-02-18T10:01:09;97259.06;;;10.01;100.00
24962;BME280;12992;50.884;13.668;2023-02-18T10:03:36;97254.50;;;10.07;100.00
24962;BME280;12992;50.884;13.668;2023-02-18T10:06:21;97256.16;;;10.08;100.00
24962;BME280;12992;50.884;13.668;2023-02-18T10:08:49;97251.91;;;10.17;100.00
24962;BME280;12992;50.884;13.668;2023-02-18T10:13:55;97255.75;;;10.21;100.00
24962;BME280;12992;50.884;13.668;2023-02-18T10:16:22;97244.66;;;10.23;100.00
24962;BME280;12992;50.884;13.668;2023-02-18T10:18:58;97238.31;;;10.17;100.00
24962;BME280;12992;50.884;13.668;2023-02-18T10:21:29;97234.13;;;10.09;100.00
24962;BME280;12992;50.884;13.668;2023-02-18T10:24:04;97244.25;;;10.14;100.00
24962;BME280;12992;50.884;13.668;2023-02-18T10:26:33;97221.28;;;10.05;100.00
24962;BME280;12992;50.884;13.668;2023-02-18T10:28:59;97225.34;;;10.02;100.00
24962;BME280;12992;50.884;13.668;2023-02-18T10:31:32;97228.38;;;10.06;100.00
24962;BME280;12992;50.884;13.668;2023-02-18T10:36:46;97220.38;;;10.21;100.00
24962;BME280;12992;50.884;13.668;2023-02-18T10:39:19;97214.44;;;10.24;100.00
24962;BME280;12992;50.884;13.668;2023-02-18T10:41:56;97204.84;;;10.16;100.00
24962;BME280;12992;50.884;13.668;2023-02-18T10:44:29;97201.78;;;10.13;100.00
24962;BME280;12992;50.884;13.668;2023-02-18T10:47:05;97205.59;;;10.12;100.00
24962;BME280;12992;50.884;13.668;2023-02-18T10:49:59;97200.28;;;10.22;100.00
24962;BME280;12992;50.884;13.668;2023-02-18T10:52:46;97198.44;;;10.28;100.00
24962;BME280;12992;50.884;13.668;2023-02-18T10:55:15;97192.22;;;10.32;100.00
24962;BME280;12992;50.884;13.668;2023-02-18T10:57:53;97185.81;;;10.43;100.00
24962;BME280;12992;50.884;13.668;2023-02-18T11:00:21;97180.41;;;10.48;100.00
24962;BME280;12992;50.884;13.668;2023-02-18T11:03:12;97174.22;;;10.58;100.00
24962;BME280;12992;50.884;13.668;2023-02-18T11:05:39;97162.25;;;10.59;100.00
24962;BME280;12992;50.884;13.668;2023-02-18T11:08:12;97160.66;;;10.63;100.00
24962;BME280;12992;50.884;13.668;2023-02-18T11:10:41;97154.69;;;10.66;100.00
24962;BME280;12992;50.884;13.668;2023-02-18T11:13:09;97147.09;;;10.73;100.00
24962;BME280;12992;50.884;13.668;2023-02-18T11:15:37;97153.19;;;10.86;100.00
24962;BME280;12992;50.884;13.668;2023-02-18T11:18:29;97142.66;;;10.99;100.00
24962;BME280;12992;50.884;13.668;2023-02-18T11:20:58;97122.00;;;11.09;100.00
24962;BME280;12992;50.884;13.668;2023-02-18T11:23:24;97113.06;;;11.13;100.00
24962;BME280;12992;50.884;13.668;2023-02-18T11:26:12;97110.09;;;11.25;100.00
24962;BME280;12992;50.884;13.668;2023-02-18T11:28:47;97116.66;;;11.24;100.00
24962;BME280;12992;50.884;13.668;2023-02-18T11:31:20;97083.31;;;11.12;100.00
24962;BME280;12992;50.884;13.668;2023-02-18T11:33:52;97096.75;;;11.23;100.00
24962;BME280;12992;50.884;13.668;2023-02-18T11:36:29;97076.28;;;11.16;100.00
24962;BME280;12992;50.884;13.668;2023-02-18T11:39:03;97070.28;;;11.19;100.00
24962;BME280;12992;50.884;13.668;2023-02-18T11:41:34;97060.41;;;11.07;100.00
24962;BME280;12992;50.884;13.668;2023-02-18T11:44:04;97070.78;;;11.11;100.00
24962;BME280;12992;50.884;13.668;2023-02-18T11:46:30;97039.16;;;11.10;100.00
24962;BME280;12992;50.884;13.668;2023-02-18T11:49:10;97047.06;;;11.06;100.00
24962;BME280;12992;50.884;13.668;2023-02-18T11:51:44;97032.63;;;11.05;100.00
24962;BME280;12992;50.884;13.668;2023-02-18T11:54:25;97032.59;;;11.00;100.00
24962;BME280;12992;50.884;13.668;2023-02-18T11:56:59;97024.94;;;10.97;100.00
24962;BME280;12992;50.884;13.668;2023-02-18T11:59:28;97027.94;;;11.01;100.00
24962;BME280;12992;50.884;13.668;2023-02-18T12:04:45;97034.44;;;10.95;100.00
24962;BME280;12992;50.884;13.668;2023-02-18T12:07:19;97020.81;;;10.90;100.00
24962;BME280;12992;50.884;13.668;2023-02-18T12:09:50;96999.56;;;10.87;100.00
24962;BME280;12992;50.884;13.668;2023-02-18T12:12:24;97003.13;;;10.92;100.00
24962;BME280;12992;50.884;13.668;2023-02-18T12:14:53;97000.91;;;10.79;100.00
24962;BME280;12992;50.884;13.668;2023-02-18T12:17:39;96991.09;;;10.78;100.00
24962;BME280;12992;50.884;13.668;2023-02-18T12:28:32;96987.56;;;10.35;100.00
24962;BME280;12992;50.884;13.668;2023-02-18T12:31:10;96965.09;;;10.18;100.00
24962;BME280;12992;50.884;13.668;2023-02-18T12:40:19;96988.19;;;10.10;100.00
24962;BME280;12992;50.884;13.668;2023-02-18T12:42:45;96992.81;;;10.15;100.00
24962;BME280;12992;50.884;13.668;2023-02-18T12:45:40;96994.66;;;10.04;100.00
24962;BME280;12992;50.884;13.668;2023-02-18T12:51:24;97004.50;;;9.78;100.00
24962;BME280;12992;50.884;13.668;2023-02-18T12:59:54;96975.09;;;9.75;100.00
24962;BME280;12992;50.884;13.668;2023-02-18T13:05:42;96966.94;;;9.75;100.00
24962;BME280;12992;50.884;13.668;2023-02-18T13:14:00;96984.81;;;9.98;100.00
24962;BME280;12992;50.884;13.668;2023-02-18T13:16:27;96967.03;;;9.85;100.00
24962;BME280;12992;50.884;13.668;2023-02-18T13:19:03;96958.31;;;9.83;100.00
24962;BME280;12992;50.884;13.668;2023-02-18T13:21:32;96939.03;;;9.85;100.00
24962;BME280;12992;50.884;13.668;2023-02-18T13:24:04;96955.63;;;9.88;100.00
24962;BME280;12992;50.884;13.668;2023-02-18T13:26:32;96947.78;;;9.92;100.00
24962;BME280;12992;50.884;13.668;2023-02-18T13:29:13;96945.34;;;9.96;100.00
24962;BME280;12992;50.884;13.668;2023-02-18T13:32:02;96950.28;;;9.99;100.00
24962;BME280;12992;50.884;13.668;2023-02-18T13:37:40;96946.53;;;10.10;100.00
24962;BME280;12992;50.884;13.668;2023-02-18T13:40:16;96949.19;;;10.00;100.00
24962;BME280;12992;50.884;13.668;2023-02-18T13:42:43;96950.78;;;9.96;100.00
24962;BME280;12992;50.884;13.668;2023-02-18T13:47:48;96942.88;;;9.57;100.00
24962;BME280;12992;50.884;13.668;2023-02-18T13:53:01;96949.16;;;9.30;100.00
24962;BME280;12992;50.884;13.668;2023-02-18T13:55:55;96943.66;;;9.25;100.00
24962;BME280;12992;50.884;13.668;2023-02-18T13:58:33;96952.63;;;9.26;100.00
24962;BME280;12992;50.884;13.668;2023-02-18T14:01:04;96968.34;;;9.24;100.00
24962;BME280;12992;50.884;13.668;2023-02-18T14:03:35;96950.13;;;9.19;100.00
24962;BME280;12992;50.884;13.668;2023-02-18T14:08:38;96961.56;;;9.21;100.00
24962;BME280;12992;50.884;13.668;2023-02-18T14:13:45;96973.53;;;9.25;100.00
24962;BME280;12992;50.884;13.668;2023-02-18T14:16:11;96959.47;;;9.28;100.00
24962;BME280;12992;50.884;13.668;2023-02-18T14:21:17;96965.91;;;9.22;100.00
24962;BME280;12992;50.884;13.668;2023-02-18T14:23:58;96955.56;;;9.19;100.00
24962;BME280;12992;50.884;13.668;2023-02-18T14:26:28;96952.72;;;9.09;100.00
24962;BME280;12992;50.884;13.668;2023-02-18T14:29:08;96954.00;;;9.01;100.00